Time;durP1;ratioP1;P1;durP2;ratioP2;P2;SDS_P1;SDS_P2;PMS_P1;PMS_P2;Temp;Humidity;BMP_temperature;BMP_pressure;BME280_temperature;BME280_humidity;BME280_pressure;Samples;Min_cycle;Max_cycle;Signal;HPM_P1;HPM_P2
2022/05/05 00:00:17;;;;;;;0.50;0.40;;;11.90;99.90;;;;;;5051102;28;20198;-75
2022/05/05 00:02:45;;;;;;;0.50;0.40;;;11.90;99.90;;;;;;5050761;28;20218;-77
2022/05/05 00:05:12;;;;;;;0.50;0.40;;;11.90;99.90;;;;;;5051249;28;20214;-76
2022/05/05 00:07:39;;;;;;;0.50;0.40;;;12.00;99.90;;;;;;5050843;28;20206;-76
2022/05/05 00:15:34;;;;;;;0.50;0.40;;;12.00;99.90;;;;;;5024937;28;20840;-77
2022/05/05 00:18:03;;;;;;;0.50;0.40;;;12.00;99.90;;;;;;5050743;28;20209;-77
2022/05/05 00:20:30;;;;;;;0.50;0.40;;;12.00;99.90;;;;;;5050437;28;20194;-77
2022/05/05 00:22:57;;;;;;;0.50;0.40;;;12.10;99.90;;;;;;5050807;28;20579;-77
2022/05/05 00:25:23;;;;;;;0.50;0.40;;;12.10;99.90;;;;;;5050866;28;20214;-77
2022/05/05 00:27:50;;;;;;;0.50;0.40;;;12.10;99.90;;;;;;5050633;28;20200;-77
2022/05/05 00:30:17;;;;;;;0.50;0.40;;;12.20;99.90;;;;;;5050902;28;20204;-77
2022/05/05 00:32:44;;;;;;;0.50;0.40;;;12.10;99.90;;;;;;5050589;28;20273;-76
2022/05/05 00:35:12;;;;;;;0.50;0.40;;;12.10;99.90;;;;;;5050686;28;20187;-75
2022/05/05 00:37:39;;;;;;;0.50;0.40;;;12.10;99.90;;;;;;5050334;28;20205;-77
2022/05/05 00:40:07;;;;;;;0.50;0.40;;;12.10;99.90;;;;;;5050597;28;20194;-77
2022/05/05 00:42:35;;;;;;;0.50;0.40;;;12.10;99.90;;;;;;5050810;28;20222;-77
2022/05/05 00:45:02;;;;;;;0.50;0.40;;;12.20;99.90;;;;;;5050619;28;20225;-77
2022/05/05 00:47:29;;;;;;;0.50;0.40;;;12.10;99.90;;;;;;5053780;28;20221;-76
2022/05/05 00:49:59;;;;;;;0.50;0.40;;;12.10;99.90;;;;;;5054189;28;20205;-77
2022/05/05 00:52:27;;;;;;;0.50;0.40;;;12.10;99.90;;;;;;5054592;28;20254;-77
2022/05/05 00:54:56;;;;;;;0.50;0.40;;;12.20;99.90;;;;;;5053995;28;20190;-77
2022/05/05 00:57:24;;;;;;;0.50;0.40;;;12.20;99.90;;;;;;5054053;28;20591;-74
2022/05/05 00:59:51;;;;;;;0.50;0.40;;;12.20;99.90;;;;;;5054109;28;20201;-77
2022/05/05 01:02:18;;;;;;;0.50;0.40;;;12.20;99.90;;;;;;5053834;28;20221;-77
2022/05/05 01:04:46;;;;;;;0.50;0.40;;;12.20;99.90;;;;;;5054140;28;20573;-77
2022/05/05 01:07:13;;;;;;;0.50;0.40;;;12.20;99.90;;;;;;5054190;28;20265;-76
2022/05/05 01:09:42;;;;;;;0.50;0.40;;;12.20;99.90;;;;;;5053755;28;20667;-77
2022/05/05 01:12:09;;;;;;;0.50;0.40;;;12.20;99.90;;;;;;5053320;28;20218;-77
2022/05/05 01:14:36;;;;;;;0.50;0.40;;;12.10;99.90;;;;;;5054149;28;20190;-77
2022/05/05 01:17:03;;;;;;;0.50;0.40;;;12.10;99.90;;;;;;5053505;28;20198;-76
2022/05/05 01:19:30;;;;;;;0.50;0.40;;;12.10;99.90;;;;;;5053310;28;20229;-77
2022/05/05 01:21:58;;;;;;;0.50;0.40;;;12.20;99.90;;;;;;5053833;28;20899;-77
2022/05/05 01:29:53;;;;;;;0.50;0.40;;;12.10;99.90;;;;;;5053691;28;20799;-77
2022/05/05 01:32:19;;;;;;;0.50;0.40;;;12.10;99.90;;;;;;5053472;28;20234;-77
2022/05/05 01:34:47;;;;;;;0.50;0.40;;;12.10;99.90;;;;;;5053018;28;20208;-76
2022/05/05 01:37:15;;;;;;;0.50;0.40;;;12.10;99.90;;;;;;5053345;28;20210;-78
2022/05/05 01:39:41;;;;;;;0.50;0.40;;;12.10;99.90;;;;;;5053432;28;20209;-77
2022/05/05 01:42:08;;;;;;;0.50;0.40;;;12.10;99.90;;;;;;5052891;28;20399;-77
2022/05/05 01:44:35;;;;;;;0.50;0.40;;;12.00;99.90;;;;;;5053598;28;20245;-76
2022/05/05 01:47:02;;;;;;;0.50;0.40;;;12.00;99.90;;;;;;5053311;28;20191;-77
2022/05/05 01:49:28;;;;;;;0.50;0.40;;;12.10;99.90;;;;;;5053183;28;20206;-76
2022/05/05 01:51:55;;;;;;;0.50;0.40;;;12.10;99.90;;;;;;5053315;28;20218;-77
2022/05/05 01:54:23;;;;;;;0.50;0.40;;;12.10;99.90;;;;;;5053341;28;20265;-77
2022/05/05 01:56:50;;;;;;;0.50;0.40;;;12.10;99.90;;;;;;5052778;28;20197;-77
2022/05/05 01:59:17;;;;;;;0.50;0.40;;;12.10;99.90;;;;;;5052337;28;20202;-76
2022/05/05 02:01:43;;;;;;;0.50;0.40;;;12.10;99.90;;;;;;5052580;28;20214;-77
2022/05/05 02:04:10;;;;;;;0.50;0.40;;;12.10;99.90;;;;;;5052999;28;20687;-77
2022/05/05 02:06:37;;;;;;;0.50;0.40;;;12.10;99.90;;;;;;5052887;28;20194;-76
2022/05/05 02:09:04;;;;;;;0.50;0.40;;;12.10;99.90;;;;;;5052471;28;20221;-76
2022/05/05 02:11:32;;;;;;;0.50;0.40;;;12.00;99.90;;;;;;5053126;28;20224;-77
2022/05/05 02:13:59;;;;;;;0.50;0.40;;;12.00;99.90;;;;;;5052799;28;20198;-75
2022/05/05 02:16:25;;;;;;;0.50;0.40;;;12.00;99.90;;;;;;5053171;28;20571;-77
2022/05/05 02:18:52;;;;;;;0.50;0.40;;;11.90;99.90;;;;;;5052224;28;20197;-77
2022/05/05 02:21:19;;;;;;;0.50;0.40;;;11.90;99.90;;;;;;5052495;28;20210;-77
2022/05/05 02:23:45;;;;;;;1.77;1.67;;;11.90;99.90;;;;;;5052437;28;20198;-77
2022/05/05 02:26:12;;;;;;;0.50;0.40;;;11.70;99.90;;;;;;5052698;28;20201;-76
2022/05/05 02:28:40;;;;;;;0.50;0.40;;;11.70;99.90;;;;;;5052157;28;20204;-76
2022/05/05 02:31:07;;;;;;;0.50;0.40;;;11.70;99.90;;;;;;5052475;28;20225;-76
2022/05/05 02:33:34;;;;;;;0.50;0.40;;;11.70;99.90;;;;;;5052010;28;20230;-76
2022/05/05 02:38:46;;;;;;;1.17;1.05;;;11.60;99.90;;;;;;5051847;28;20240;-77
2022/05/05 02:41:12;;;;;;;0.50;0.40;;;11.50;99.90;;;;;;5052198;28;20198;-76
2022/05/05 02:43:40;;;;;;;0.50;0.40;;;11.50;99.90;;;;;;5052065;28;20208;-76
2022/05/05 02:46:07;;;;;;;0.50;0.40;;;11.40;99.90;;;;;;5052156;28;20690;-77
2022/05/05 02:48:34;;;;;;;0.50;0.40;;;11.40;99.90;;;;;;5052013;28;20202;-76
2022/05/05 02:51:01;;;;;;;0.50;0.40;;;11.40;99.90;;;;;;5052230;28;20239;-76
2022/05/05 02:56:12;;;;;;;0.50;0.40;;;11.30;99.90;;;;;;5051761;28;20258;-77
2022/05/05 02:58:40;;;;;;;0.50;0.40;;;11.30;99.90;;;;;;5051793;28;20197;-77
2022/05/05 03:01:08;;;;;;;0.50;0.40;;;11.20;99.90;;;;;;5051967;28;20222;-77
2022/05/05 03:03:35;;;;;;;0.50;0.40;;;11.10;99.90;;;;;;5052039;28;20247;-76
2022/05/05 03:06:02;;;;;;;0.50;0.40;;;11.10;99.90;;;;;;5051896;28;20223;-77
2022/05/05 03:08:28;;;;;;;0.50;0.40;;;11.10;99.90;;;;;;5051802;28;20207;-77
2022/05/05 03:10:55;;;;;;;0.50;0.40;;;11.00;99.90;;;;;;5050713;28;20196;-76
2022/05/05 03:13:22;;;;;;;0.50;0.40;;;11.00;99.90;;;;;;5051919;28;20217;-78
2022/05/05 03:15:50;;;;;;;0.50;0.40;;;11.00;99.90;;;;;;5051425;28;20726;-77
2022/05/05 03:18:16;;;;;;;0.50;0.40;;;10.90;99.90;;;;;;5051396;28;20204;-77
2022/05/05 03:20:43;;;;;;;0.50;0.40;;;10.90;99.90;;;;;;5051312;28;20202;-76
2022/05/05 03:23:10;;;;;;;0.50;0.40;;;10.90;99.90;;;;;;5051756;28;20216;-77
2022/05/05 03:25:37;;;;;;;0.50;0.40;;;10.80;99.90;;;;;;5051766;28;20222;-76
2022/05/05 03:28:04;;;;;;;0.52;0.40;;;10.80;99.90;;;;;;5051176;28;20196;-76
2022/05/05 03:30:31;;;;;;;0.50;0.40;;;10.80;99.90;;;;;;5051528;28;20665;-77
2022/05/05 03:32:59;;;;;;;0.50;0.40;;;10.70;99.90;;;;;;5051225;28;20230;-76
2022/05/05 03:35:26;;;;;;;0.50;0.40;;;10.60;99.90;;;;;;5051619;28;20280;-77
2022/05/05 03:37:53;;;;;;;0.50;0.40;;;10.60;99.90;;;;;;5051069;28;20223;-76
2022/05/05 03:40:19;;;;;;;0.50;0.40;;;10.60;99.90;;;;;;5051496;28;20200;-77
2022/05/05 03:42:46;;;;;;;0.50;0.40;;;10.50;99.90;;;;;;5051304;28;20222;-76
2022/05/05 03:45:13;;;;;;;0.50;0.40;;;10.50;99.90;;;;;;5050963;28;20591;-76
2022/05/05 03:47:39;;;;;;;0.50;0.40;;;10.40;99.90;;;;;;5051183;28;20200;-76
2022/05/05 03:50:09;;;;;;;0.50;0.40;;;10.40;99.90;;;;;;5051669;28;20205;-76
2022/05/05 03:52:36;;;;;;;0.50;0.40;;;10.40;99.90;;;;;;5051161;28;20227;-76
2022/05/05 03:55:02;;;;;;;0.50;0.40;;;10.40;99.90;;;;;;5051084;28;20207;-76
2022/05/05 03:57:29;;;;;;;0.50;0.40;;;10.30;99.90;;;;;;5051126;28;20200;-76
2022/05/05 03:59:56;;;;;;;0.50;0.40;;;10.40;99.90;;;;;;5051446;28;20568;-77
2022/05/05 04:02:23;;;;;;;0.50;0.40;;;10.40;99.90;;;;;;5050884;28;20907;-76
2022/05/05 04:04:49;;;;;;;0.50;0.40;;;10.30;99.90;;;;;;5051218;28;20216;-77
2022/05/05 04:07:17;;;;;;;0.50;0.40;;;10.20;99.90;;;;;;5051291;28;20198;-77
2022/05/05 04:09:44;;;;;;;0.50;0.40;;;10.20;99.90;;;;;;5051085;28;20234;-77
2022/05/05 04:12:12;;;;;;;0.50;0.40;;;10.20;99.90;;;;;;5051237;28;20219;-76
2022/05/05 04:14:39;;;;;;;0.50;0.40;;;10.10;99.90;;;;;;5050774;28;20223;-77
2022/05/05 04:17:06;;;;;;;0.50;0.40;;;10.00;99.90;;;;;;5050936;28;20567;-75
2022/05/05 04:19:33;;;;;;;0.50;0.40;;;10.00;99.90;;;;;;5050296;28;20205;-77
2022/05/05 04:21:59;;;;;;;0.50;0.40;;;10.00;99.90;;;;;;5053782;28;20211;-77
2022/05/05 04:24:27;;;;;;;0.50;0.40;;;9.90;99.90;;;;;;5054535;28;20702;-77
2022/05/05 04:26:54;;;;;;;0.50;0.40;;;9.90;99.90;;;;;;5054724;28;20569;-76
2022/05/05 04:29:21;;;;;;;0.50;0.40;;;9.80;99.90;;;;;;5054627;28;20202;-76
2022/05/05 04:31:48;;;;;;;0.50;0.40;;;9.90;99.90;;;;;;5054556;28;20233;-75
2022/05/05 04:34:15;;;;;;;0.50;0.40;;;9.80;99.90;;;;;;5054560;28;20752;-76
2022/05/05 04:36:41;;;;;;;0.50;0.40;;;9.80;99.90;;;;;;5056220;28;20560;-77
2022/05/05 04:39:08;;;;;;;0.50;0.40;;;9.90;99.90;;;;;;5054473;28;20195;-76
2022/05/05 04:41:36;;;;;;;0.50;0.40;;;10.00;99.90;;;;;;5055133;28;20583;-76
2022/05/05 04:44:03;;;;;;;0.50;0.40;;;10.10;99.90;;;;;;5054301;28;20196;-76
2022/05/05 04:46:30;;;;;;;0.50;0.40;;;10.30;99.90;;;;;;5054581;28;20228;-77
2022/05/05 04:48:56;;;;;;;0.50;0.40;;;10.30;99.90;;;;;;5054247;28;20199;-76
2022/05/05 04:51:23;;;;;;;0.50;0.40;;;10.40;99.90;;;;;;5054464;28;20274;-76
2022/05/05 04:53:50;;;;;;;0.50;0.40;;;10.50;99.90;;;;;;5053938;28;20208;-76
2022/05/05 04:56:17;;;;;;;0.50;0.40;;;10.60;99.90;;;;;;5054617;28;20572;-76
2022/05/05 04:58:45;;;;;;;0.50;0.40;;;10.70;99.90;;;;;;5053607;28;20568;-76
2022/05/05 05:01:12;;;;;;;0.50;0.40;;;10.80;99.90;;;;;;5054093;28;20191;-76
2022/05/05 05:03:39;;;;;;;0.50;0.40;;;10.80;99.90;;;;;;5053404;28;20199;-76
2022/05/05 05:06:08;;;;;;;0.50;0.40;;;10.90;99.90;;;;;;5053937;28;20216;-79
2022/05/05 05:08:35;;;;;;;0.50;0.40;;;11.00;99.90;;;;;;5053711;28;20544;-76
2022/05/05 05:11:02;;;;;;;0.50;0.40;;;11.20;99.90;;;;;;5053478;28;20244;-76
2022/05/05 05:13:29;;;;;;;0.52;0.45;;;11.40;99.90;;;;;;5053249;28;20567;-76
2022/05/05 05:15:57;;;;;;;0.50;0.40;;;11.60;99.90;;;;;;5053695;28;20200;-79
2022/05/05 05:18:24;;;;;;;0.50;0.40;;;11.80;99.90;;;;;;5053672;28;20201;-75
2022/05/05 05:20:52;;;;;;;0.50;0.40;;;11.90;99.90;;;;;;5053598;28;20668;-76
2022/05/05 05:23:19;;;;;;;0.50;0.40;;;12.10;99.90;;;;;;5053365;28;20306;-76
2022/05/05 05:25:46;;;;;;;0.50;0.40;;;12.20;99.90;;;;;;5053177;28;20691;-77
2022/05/05 05:28:14;;;;;;;0.50;0.40;;;12.30;99.90;;;;;;5053408;28;20202;-77
2022/05/05 05:30:41;;;;;;;0.50;0.40;;;12.40;99.90;;;;;;5053489;28;20520;-77
2022/05/05 05:33:09;;;;;;;0.50;0.40;;;12.50;99.90;;;;;;5052115;28;20719;-77
2022/05/05 05:35:36;;;;;;;0.50;0.40;;;12.60;99.90;;;;;;5052735;28;20191;-76
2022/05/05 05:38:03;;;;;;;0.50;0.40;;;12.70;99.90;;;;;;5052940;28;20197;-77
2022/05/05 05:40:30;;;;;;;0.50;0.40;;;12.80;99.90;;;;;;5053657;28;20198;-77
2022/05/05 05:42:56;;;;;;;0.50;0.40;;;12.90;99.90;;;;;;5052955;28;20221;-77
2022/05/05 05:45:24;;;;;;;0.50;0.40;;;13.10;99.90;;;;;;5052575;28;20222;-77
2022/05/05 05:47:51;;;;;;;0.50;0.40;;;13.20;99.90;;;;;;5052644;28;20281;-77
2022/05/05 05:50:19;;;;;;;0.50;0.40;;;13.30;99.90;;;;;;5052721;28;20289;-77
2022/05/05 05:52:46;;;;;;;0.50;0.40;;;13.50;99.90;;;;;;5052587;28;20711;-77
2022/05/05 05:55:12;;;;;;;0.50;0.30;;;13.70;99.90;;;;;;5052619;28;20225;-78
2022/05/05 05:57:39;;;;;;;0.50;0.40;;;14.00;99.90;;;;;;5051992;28;20211;-77
2022/05/05 06:00:07;;;;;;;0.50;0.40;;;14.30;99.90;;;;;;5052923;28;20221;-77
2022/05/05 06:05:20;;;;;;;0.50;0.40;;;14.80;99.90;;;;;;5052728;28;20476;-73
2022/05/05 06:07:48;;;;;;;0.50;0.40;;;14.90;99.90;;;;;;5051920;28;20534;-77
2022/05/05 06:10:17;;;;;;;0.50;0.40;;;15.10;99.90;;;;;;5052443;28;20540;-77
2022/05/05 06:12:44;;;;;;;0.50;0.40;;;15.00;99.90;;;;;;5052752;28;20457;-76
2022/05/05 06:15:11;;;;;;;0.50;0.40;;;15.10;99.90;;;;;;5052344;28;20452;-77
2022/05/05 06:17:38;;;;;;;1.63;1.53;;;15.10;99.90;;;;;;5052390;28;20483;-77
2022/05/05 06:20:06;;;;;;;0.50;0.40;;;15.20;99.90;;;;;;5052326;28;20937;-77
2022/05/05 06:22:34;;;;;;;0.50;0.40;;;15.40;99.90;;;;;;5052408;28;20457;-77
2022/05/05 06:25:01;;;;;;;0.50;0.40;;;15.40;99.90;;;;;;5052326;28;20832;-77
2022/05/05 06:27:28;;;;;;;0.50;0.30;;;15.40;99.90;;;;;;5052007;28;20433;-77
2022/05/05 06:29:55;;;;;;;0.50;0.30;;;15.50;99.90;;;;;;5052631;28;20441;-78
2022/05/05 06:32:22;;;;;;;0.50;0.30;;;15.50;99.90;;;;;;5051243;28;20473;-77
2022/05/05 06:34:49;;;;;;;0.50;0.40;;;15.40;99.90;;;;;;5052554;28;20827;-77
2022/05/05 06:37:15;;;;;;;0.50;0.30;;;15.40;99.90;;;;;;5051943;28;20994;-77
2022/05/05 06:39:43;;;;;;;0.50;0.30;;;15.40;99.90;;;;;;5052325;28;20448;-77
2022/05/05 06:42:10;;;;;;;0.50;0.40;;;15.40;99.90;;;;;;5051647;28;20452;-76
2022/05/05 06:44:37;;;;;;;0.50;0.40;;;15.30;99.90;;;;;;5051857;28;20437;-77
2022/05/05 06:47:04;;;;;;;0.50;0.40;;;15.30;99.90;;;;;;5051705;28;20499;-78
2022/05/05 06:49:31;;;;;;;0.50;0.40;;;15.30;99.90;;;;;;5051764;28;20472;-77
2022/05/05 06:51:59;;;;;;;0.50;0.40;;;15.40;99.90;;;;;;5051669;28;20905;-77
2022/05/05 06:54:26;;;;;;;0.50;0.40;;;15.50;99.90;;;;;;5051569;28;20448;-77
2022/05/05 06:56:55;;;;;;;0.50;0.40;;;15.50;99.90;;;;;;5051594;28;20437;-77
2022/05/05 06:59:22;;;;;;;0.50;0.40;;;15.60;99.90;;;;;;5051601;28;20794;-77
2022/05/05 07:01:54;;;;;;;0.50;0.30;;;15.70;99.90;;;;;;5051322;28;20469;-76
2022/05/05 07:07:06;;;;;;;0.50;0.30;;;16.10;99.90;;;;;;5051501;28;20470;-76
2022/05/05 07:12:19;;;;;;;0.50;0.40;;;16.40;99.90;;;;;;5052133;28;20467;-77
2022/05/05 07:14:46;;;;;;;0.50;0.40;;;16.50;99.90;;;;;;5051723;28;20454;-77
2022/05/05 07:17:13;;;;;;;0.50;0.37;;;16.70;99.90;;;;;;5052178;28;20445;-76
2022/05/05 07:19:41;;;;;;;0.50;0.30;;;16.80;99.90;;;;;;5051429;28;20552;-77
2022/05/05 07:22:08;;;;;;;0.50;0.40;;;16.80;99.90;;;;;;5051659;28;20461;-78
2022/05/05 07:24:35;;;;;;;0.67;0.67;;;16.70;99.90;;;;;;5051357;28;20451;-77
2022/05/05 07:27:03;;;;;;;0.50;0.30;;;16.80;99.90;;;;;;5051733;28;20478;-77
2022/05/05 07:29:32;;;;;;;0.50;0.30;;;16.90;99.90;;;;;;5050903;28;20439;-78
2022/05/05 07:31:59;;;;;;;0.50;0.30;;;17.00;99.90;;;;;;5051393;28;20470;-78
2022/05/05 07:34:27;;;;;;;0.50;0.33;;;17.10;99.90;;;;;;5051099;28;20452;-78
2022/05/05 07:36:53;;;;;;;0.50;0.40;;;17.20;99.90;;;;;;5051192;28;20444;-78
2022/05/05 07:39:20;;;;;;;0.50;0.30;;;17.30;99.90;;;;;;5050569;28;20472;-78
2022/05/05 07:41:47;;;;;;;0.50;0.30;;;17.50;99.90;;;;;;5051174;28;20471;-78
2022/05/05 07:44:14;;;;;;;1.17;1.03;;;17.90;99.90;;;;;;5051256;28;20448;-78
2022/05/05 07:46:42;;;;;;;0.50;0.40;;;18.40;99.90;;;;;;5051221;28;20468;-77
2022/05/05 07:49:09;;;;;;;0.60;0.60;;;19.00;99.90;;;;;;5050847;28;20443;-77
2022/05/05 07:51:36;;;;;;;0.50;0.30;;;19.60;99.90;;;;;;5050517;28;20461;-78
2022/05/05 07:56:51;;;;;;;0.50;0.30;;;20.10;97.80;;;;;;5056055;28;20412;-75
2022/05/05 07:59:18;;;;;;;0.50;0.30;;;20.90;94.50;;;;;;5057362;28;20448;-75
2022/05/05 08:01:46;;;;;;;0.50;0.30;;;21.90;92.30;;;;;;5057405;28;20826;-76
2022/05/05 08:04:13;;;;;;;0.50;0.37;;;22.70;85.70;;;;;;5057850;28;20440;-76
2022/05/05 08:06:40;;;;;;;0.50;0.30;;;23.20;81.10;;;;;;5057771;28;20503;-75
2022/05/05 08:09:07;;;;;;;0.50;0.30;;;23.80;75.10;;;;;;5056996;28;20441;-76
2022/05/05 08:11:35;;;;;;;0.50;0.30;;;24.00;71.20;;;;;;5057132;28;20461;-75
2022/05/05 08:14:01;;;;;;;0.50;0.30;;;24.20;66.80;;;;;;5057619;28;20541;-75
2022/05/05 08:16:28;;;;;;;0.50;0.40;;;23.80;64.20;;;;;;5056615;28;20941;-75
2022/05/05 08:18:56;;;;;;;0.50;0.40;;;23.70;67.00;;;;;;5057008;28;20445;-76
2022/05/05 08:21:23;;;;;;;0.50;0.30;;;24.10;64.90;;;;;;5057269;28;20445;-76
2022/05/05 08:28:27;;;;;;;0.50;0.40;;;24.70;68.70;;;;;;5057293;28;20437;-76
2022/05/05 08:29:21;;;;;;;0.50;0.30;;;26.00;57.20;;;;;;5056851;28;20954;-75
2022/05/05 08:31:48;;;;;;;0.50;0.37;;;27.10;57.10;;;;;;5056554;28;20483;-76
2022/05/05 08:34:16;;;;;;;0.50;0.30;;;28.00;53.80;;;;;;5056701;28;20943;-76
2022/05/05 08:36:42;;;;;;;0.50;0.30;;;28.40;53.80;;;;;;5057381;28;20486;-77
2022/05/05 08:39:09;;;;;;;0.50;0.43;;;29.10;51.90;;;;;;5056799;28;20440;-76
2022/05/05 08:41:39;;;;;;;0.50;0.30;;;29.80;52.20;;;;;;5056895;28;20464;-76
2022/05/05 08:44:05;;;;;;;0.50;0.30;;;29.70;51.00;;;;;;5056619;28;20436;-77
2022/05/05 08:46:34;;;;;;;0.50;0.30;;;30.50;50.30;;;;;;5057105;28;20476;-76
2022/05/05 08:49:05;;;;;;;0.50;0.30;;;31.10;52.00;;;;;;5057012;28;20441;-77
2022/05/05 08:51:39;;;;;;;0.50;0.30;;;31.10;48.60;;;;;;5056838;28;20465;-78
2022/05/05 08:54:08;;;;;;;0.50;0.30;;;31.20;48.90;;;;;;5057157;28;20970;-75
2022/05/05 08:56:35;;;;;;;0.50;0.37;;;30.90;47.50;;;;;;5056960;28;20467;-75
2022/05/05 08:59:03;;;;;;;1.03;1.03;;;30.80;47.00;;;;;;5057198;28;20448;-75
2022/05/05 09:01:38;;;;;;;0.50;0.30;;;30.80;47.10;;;;;;5057397;28;20532;-76
2022/05/05 09:04:05;;;;;;;0.50;0.30;;;30.70;49.30;;;;;;5057422;28;20826;-76
2022/05/05 09:06:43;;;;;;;6.00;3.20;;;31.00;47.00;;;;;;5057149;28;20476;-76
2022/05/05 09:09:30;;;;;;;0.50;0.30;;;31.10;48.20;;;;;;5053319;28;20452;-76
2022/05/05 09:12:12;;;;;;;0.53;0.40;;;31.50;48.10;;;;;;5053727;28;20492;-76
2022/05/05 09:14:41;;;;;;;1.47;1.37;;;32.40;48.70;;;;;;5053917;28;20444;-76
2022/05/05 09:17:10;;;;;;;0.50;0.30;;;32.40;44.90;;;;;;5052821;28;20529;-77
2022/05/05 09:19:39;;;;;;;0.50;0.30;;;33.50;44.70;;;;;;5053559;28;20449;-76
2022/05/05 09:22:09;;;;;;;0.50;0.40;;;33.30;45.20;;;;;;5053324;28;20461;-77
2022/05/05 09:24:36;;;;;;;0.50;0.30;;;34.00;44.00;;;;;;5053549;28;20441;-76
2022/05/05 09:27:15;;;;;;;0.50;0.30;;;33.90;42.90;;;;;;5053157;28;20465;-77
2022/05/05 09:29:42;;;;;;;0.40;0.30;;;34.40;44.90;;;;;;5053295;28;20813;-77
2022/05/05 09:32:11;;;;;;;0.40;0.30;;;35.30;44.80;;;;;;5052923;28;20477;-76
2022/05/05 09:34:38;;;;;;;0.50;0.30;;;35.90;43.00;;;;;;5053200;28;20437;-77
2022/05/05 09:37:22;;;;;;;0.40;0.30;;;36.70;42.70;;;;;;5053527;28;20429;-77
2022/05/05 09:39:54;;;;;;;0.40;0.30;;;36.10;41.60;;;;;;5053285;28;20516;-76
2022/05/05 09:42:35;;;;;;;0.70;0.70;;;35.80;41.80;;;;;;5053058;28;20497;-76
2022/05/05 09:45:11;;;;;;;1.73;1.30;;;36.00;40.40;;;;;;5053287;28;20464;-77
2022/05/05 09:47:39;;;;;;;0.50;0.30;;;35.60;40.40;;;;;;5052258;28;20548;-76
2022/05/05 09:50:06;;;;;;;0.63;0.63;;;34.70;42.40;;;;;;5052962;28;20449;-76
2022/05/05 09:58:08;;;;;;;0.90;0.90;;;35.70;40.70;;;;;;5052112;28;20416;-76
2022/05/05 10:00:45;;;;;;;12.70;3.50;;;35.20;40.30;;;;;;5053091;28;20495;-75
2022/05/05 10:06:00;;;;;;;0.50;0.30;;;33.20;43.10;;;;;;5053433;28;20427;-75
2022/05/05 10:08:35;;;;;;;0.70;0.67;;;33.40;43.10;;;;;;5052050;28;20436;-77
2022/05/05 10:11:04;;;;;;;0.60;0.60;;;34.30;43.50;;;;;;5052228;28;20863;-76
2022/05/05 10:13:32;;;;;;;1.03;1.03;;;34.90;40.00;;;;;;5052546;28;20457;-76
2022/05/05 10:16:00;;;;;;;0.40;0.30;;;33.40;41.40;;;;;;5052351;28;20536;-76
2022/05/05 10:18:28;;;;;;;0.50;0.30;;;33.40;42.50;;;;;;5052039;28;20830;-74
2022/05/05 10:20:56;;;;;;;1.33;0.50;;;33.20;42.70;;;;;;5051954;28;20452;-76
2022/05/05 10:23:38;;;;;;;0.73;0.73;;;33.00;44.10;;;;;;5052187;28;20485;-76
2022/05/05 10:26:05;;;;;;;0.50;0.30;;;32.70;43.90;;;;;;5052565;28;20528;-78
2022/05/05 10:28:42;;;;;;;0.50;0.30;;;33.30;43.20;;;;;;5052234;28;20484;-76
2022/05/05 10:31:13;;;;;;;0.50;0.40;;;34.00;41.60;;;;;;5052363;28;20436;-76
2022/05/05 10:33:58;;;;;;;0.50;0.40;;;34.40;41.50;;;;;;5052127;28;20881;-75
2022/05/05 10:36:25;;;;;;;0.50;0.50;;;34.60;42.00;;;;;;5051591;28;20445;-77
2022/05/05 10:38:53;;;;;;;0.40;0.30;;;35.50;44.00;;;;;;5065620;22;20444;-79
2022/05/05 10:41:39;;;;;;;0.40;0.30;;;35.00;41.20;;;;;;5032493;28;20445;-80
2022/05/05 10:44:25;;;;;;;9.03;1.03;;;35.40;43.50;;;;;;5039267;28;20446;-79
2022/05/05 10:47:01;;;;;;;0.40;0.30;;;35.30;40.00;;;;;;5041206;28;20481;-80
2022/05/05 10:49:49;;;;;;;0.40;0.40;;;35.20;41.00;;;;;;5039204;28;20461;-79
2022/05/05 10:52:29;;;;;;;0.40;0.30;;;35.30;41.50;;;;;;5034935;28;20433;-81
2022/05/05 10:55:18;;;;;;;0.50;0.30;;;34.10;41.00;;;;;;5034138;28;20446;-80
2022/05/05 10:57:44;;;;;;;0.50;0.30;;;32.30;41.70;;;;;;5033435;28;20447;-80
2022/05/05 11:00:13;;;;;;;0.50;0.30;;;30.90;46.00;;;;;;5033329;28;20971;-80
2022/05/05 11:02:42;;;;;;;3.43;1.80;;;30.00;46.40;;;;;;5033868;28;20457;-80
2022/05/05 11:05:26;;;;;;;0.50;0.30;;;28.50;47.00;;;;;;5034257;28;20445;-80
2022/05/05 11:07:53;;;;;;;0.50;0.50;;;27.80;50.00;;;;;;5033474;28;20912;-81
2022/05/05 11:10:45;;;;;;;0.50;0.37;;;27.00;49.20;;;;;;5034248;28;20835;-81
2022/05/05 11:13:33;;;;;;;0.50;0.30;;;26.30;51.90;;;;;;5033858;28;20473;-81
2022/05/05 11:22:06;;;;;;;0.50;0.33;;;25.60;53.50;;;;;;5034150;28;20389;-80
2022/05/05 11:24:33;;;;;;;0.50;0.30;;;26.00;53.50;;;;;;5033838;28;20422;-81
2022/05/05 11:27:02;;;;;;;0.50;0.30;;;26.90;51.20;;;;;;5033621;28;20832;-80
2022/05/05 11:29:30;;;;;;;0.50;0.30;;;27.70;51.00;;;;;;5033020;28;20457;-78
2022/05/05 11:31:57;;;;;;;2.93;1.87;;;28.90;48.50;;;;;;5033510;28;20466;-82
2022/05/05 11:34:32;;;;;;;0.50;0.30;;;30.50;47.10;;;;;;5033754;28;20927;-79
2022/05/05 11:36:59;;;;;;;0.90;0.73;;;31.20;48.30;;;;;;5033714;28;20458;-80
2022/05/05 11:39:26;;;;;;;0.50;0.30;;;32.40;45.40;;;;;;5033316;28;20469;-80
2022/05/05 11:42:05;;;;;;;0.50;0.30;;;33.00;44.20;;;;;;5033069;28;20465;-79
2022/05/05 11:44:35;;;;;;;0.60;0.50;;;30.90;43.90;;;;;;5033306;28;20425;-81
2022/05/05 11:47:10;;;;;;;0.50;0.30;;;30.30;47.10;;;;;;5033875;28;20536;-83
2022/05/05 11:49:37;;;;;;;0.50;0.30;;;29.00;48.40;;;;;;5032666;28;20484;-80
2022/05/05 11:52:05;;;;;;;0.67;0.67;;;28.30;50.10;;;;;;5033816;28;20442;-80
2022/05/05 11:54:33;;;;;;;0.77;0.77;;;28.20;50.80;;;;;;5032977;28;20438;-79
2022/05/05 11:57:00;;;;;;;0.50;0.30;;;27.70;49.80;;;;;;5033753;28;20442;-79
2022/05/05 12:02:17;;;;;;;0.60;0.60;;;26.90;51.10;;;;;;5034149;28;20811;-80
2022/05/05 12:04:45;;;;;;;0.50;0.30;;;26.40;52.00;;;;;;5033163;28;20529;-79
2022/05/05 12:07:19;;;;;;;0.50;0.30;;;26.10;52.30;;;;;;5033343;28;20816;-79
2022/05/05 12:09:47;;;;;;;0.50;0.40;;;25.80;52.50;;;;;;5033003;28;20561;-78
2022/05/05 12:12:16;;;;;;;0.53;0.47;;;26.40;54.80;;;;;;5033532;28;20465;-81
2022/05/05 12:14:46;;;;;;;0.83;0.83;;;27.70;52.50;;;;;;5033610;28;20448;-79
2022/05/05 12:17:17;;;;;;;0.50;0.30;;;28.80;50.00;;;;;;5032246;28;20457;-79
2022/05/05 12:19:46;;;;;;;0.50;0.30;;;30.10;47.80;;;;;;5032549;28;20465;-80
2022/05/05 12:22:13;;;;;;;0.50;0.30;;;31.40;49.00;;;;;;5032429;28;20973;-81
2022/05/05 12:24:45;;;;;;;0.50;0.40;;;32.30;47.30;;;;;;5032503;28;20963;-80
2022/05/05 12:27:12;;;;;;;0.50;0.30;;;32.40;44.70;;;;;;5032806;28;20527;-79
2022/05/05 12:29:40;;;;;;;0.90;0.90;;;31.80;44.10;;;;;;5032665;28;20477;-81
2022/05/05 12:32:11;;;;;;;0.47;0.30;;;31.10;45.00;;;;;;5032655;28;20434;-79
2022/05/05 12:34:39;;;;;;;0.50;0.30;;;29.80;44.70;;;;;;5032908;28;20434;-80
2022/05/05 12:37:10;;;;;;;0.87;0.87;;;27.50;47.20;;;;;;5033198;28;20442;-81
2022/05/05 12:39:50;;;;;;;0.60;0.50;;;26.50;49.00;;;;;;5033069;28;20477;-81
2022/05/05 12:42:17;;;;;;;0.83;0.63;;;25.80;49.70;;;;;;5034793;28;20503;-81
2022/05/05 12:44:45;;;;;;;0.53;0.37;;;26.10;49.50;;;;;;5036842;28;20478;-81
2022/05/05 12:47:13;;;;;;;0.50;0.50;;;27.20;50.00;;;;;;5036957;28;20508;-79
2022/05/05 12:49:44;;;;;;;0.50;0.30;;;28.60;48.90;;;;;;5036975;28;20853;-80
2022/05/05 12:59:36;;;;;;;0.50;0.30;;;29.90;45.70;;;;;;5036807;28;20441;-80
2022/05/05 13:00:26;;;;;;;1.33;1.17;;;29.20;46.50;;;;;;5036267;28;20441;-80
2022/05/05 13:02:54;;;;;;;0.60;0.60;;;27.60;48.50;;;;;;5036098;28;20923;-80
2022/05/05 13:05:21;;;;;;;0.50;0.30;;;25.50;49.80;;;;;;5036666;28;20446;-81
2022/05/05 13:07:47;;;;;;;0.50;0.30;;;25.10;52.00;;;;;;5037076;28;20492;-81
2022/05/05 13:10:15;;;;;;;0.50;0.30;;;24.50;53.60;;;;;;5036438;28;20461;-79
2022/05/05 13:12:41;;;;;;;0.50;0.40;;;24.40;56.00;;;;;;5036834;28;20978;-81
2022/05/05 13:15:09;;;;;;;0.50;0.30;;;24.20;55.00;;;;;;5036423;28;20805;-81
2022/05/05 13:17:36;;;;;;;0.50;0.30;;;24.10;55.40;;;;;;5037062;28;20815;-80
2022/05/05 13:20:04;;;;;;;0.50;0.30;;;23.80;55.00;;;;;;5036162;28;20454;-81
2022/05/05 13:22:32;;;;;;;0.50;0.37;;;23.90;56.50;;;;;;5036505;28;20433;-83
2022/05/05 13:24:59;;;;;;;0.50;0.30;;;24.00;56.50;;;;;;5036808;28;20820;-81
2022/05/05 13:27:26;;;;;;;2.03;0.80;;;24.10;56.00;;;;;;5036298;28;20506;-80
2022/05/05 13:29:53;;;;;;;0.80;0.50;;;23.60;55.90;;;;;;5036756;28;20468;-81
2022/05/05 13:32:19;;;;;;;0.50;0.30;;;23.50;56.90;;;;;;5035912;28;20442;-80
2022/05/05 13:34:46;;;;;;;0.50;0.30;;;23.40;56.70;;;;;;5036807;28;20820;-81
2022/05/05 13:37:14;;;;;;;0.50;0.30;;;23.60;57.10;;;;;;5035953;28;20444;-79
2022/05/05 13:39:41;;;;;;;0.50;0.30;;;23.30;56.90;;;;;;5035891;28;20480;-81
2022/05/05 13:42:08;;;;;;;2.40;1.00;;;23.40;56.70;;;;;;5036082;28;20445;-81
2022/05/05 13:44:35;;;;;;;0.50;0.30;;;23.30;56.90;;;;;;5036777;28;20461;-80
2022/05/05 13:47:01;;;;;;;0.50;0.30;;;23.60;57.40;;;;;;5035687;28;20444;-81